Time;durP1;ratioP1;P1;durP2;ratioP2;P2;SDS_P1;SDS_P2;PMS_P1;PMS_P2;Temp;Humidity;BMP_temperature;BMP_pressure;BME280_temperature;BME280_humidity;BME280_pressure;Samples;Min_cycle;Max_cycle;Signal;HPM_P1;HPM_P2
2023/07/06 00:02:06;;;;;;;3.70;2.03;;;;;;;14.63;84.51;101232.56;6131821;28;21286;-68
2023/07/06 00:05:27;;;;;;;3.03;1.80;;;;;;;14.61;84.61;101232.72;6143007;28;21581;-69
2023/07/06 00:08:52;;;;;;;3.53;2.37;;;;;;;14.61;84.89;101234.56;6145380;28;20250;-67
2023/07/06 00:12:13;;;;;;;3.50;2.00;;;;;;;14.58;85.57;101238.44;6138072;28;20238;-69
2023/07/06 00:15:35;;;;;;;2.00;1.70;;;;;;;14.62;85.62;101239.00;6138494;28;20326;-68
2023/07/06 00:18:58;;;;;;;3.07;2.13;;;;;;;14.59;85.42;101242.88;6137626;28;20238;-67
2023/07/06 00:22:19;;;;;;;3.67;2.27;;;;;;;14.57;85.60;101233.16;6144975;28;20549;-68
2023/07/06 00:25:41;;;;;;;2.37;1.70;;;;;;;14.50;85.51;101261.94;6140997;28;20243;-69
2023/07/06 00:29:04;;;;;;;3.60;2.57;;;;;;;14.50;86.11;101242.94;6136905;28;20306;-69
2023/07/06 00:32:31;;;;;;;4.00;2.30;;;;;;;14.39;86.19;101244.84;6147589;28;20664;-68
2023/07/06 00:35:52;;;;;;;4.33;2.17;;;;;;;14.41;86.37;101252.84;6143468;28;20313;-69
2023/07/06 00:39:13;;;;;;;2.73;2.30;;;;;;;14.34;86.60;101255.31;6146970;28;20223;-68
2023/07/06 00:42:36;;;;;;;4.57;4.03;;;;;;;14.35;86.80;101261.59;6133141;28;20230;-68
2023/07/06 00:46:03;;;;;;;3.43;1.97;;;;;;;14.34;86.90;101255.31;6141823;28;20399;-68
2023/07/06 00:49:24;;;;;;;4.97;2.90;;;;;;;14.26;87.26;101252.47;6137090;28;20226;-68
2023/07/06 00:52:51;;;;;;;4.57;1.80;;;;;;;14.34;87.25;101255.31;6146500;28;20630;-68
2023/07/06 00:56:16;;;;;;;9.30;2.03;;;;;;;14.23;87.22;101268.16;6147015;28;20329;-68
2023/07/06 00:59:40;;;;;;;5.10;2.60;;;;;;;14.22;87.33;101266.47;6144525;28;20239;-69
2023/07/06 01:03:01;;;;;;;2.33;2.13;;;;;;;14.29;87.31;101260.31;6145431;28;20265;-68
2023/07/06 01:06:30;;;;;;;3.87;2.53;;;;;;;14.18;87.37;101275.91;6134028;28;20235;-69
2023/07/06 01:09:52;;;;;;;2.40;1.63;;;;;;;14.23;87.45;101270.88;6117989;28;20333;-69
2023/07/06 01:13:13;;;;;;;2.77;2.17;;;;;;;14.18;87.21;101273.19;6121171;28;20239;-69
2023/07/06 01:16:42;;;;;;;3.53;2.40;;;;;;;14.15;87.46;101282.47;6145066;28;20238;-67
2023/07/06 01:20:14;;;;;;;2.13;1.67;;;;;;;14.21;87.57;101279.16;6139625;28;20600;-68
2023/07/06 01:23:59;;;;;;;4.97;2.17;;;;;;;14.18;87.77;101293.03;6144353;28;20230;-68
2023/07/06 01:27:38;;;;;;;7.37;2.23;;;;;;;14.09;87.81;101288.50;6128443;28;20260;-69
2023/07/06 01:31:27;;;;;;;2.73;2.17;;;;;;;14.12;88.04;101285.47;6145727;28;20230;-68
2023/07/06 01:34:54;;;;;;;2.57;2.30;;;;;;;14.08;88.16;101286.78;6123661;28;20230;-68
2023/07/06 01:38:16;;;;;;;3.10;2.13;;;;;;;14.05;88.29;101297.94;6141489;28;20350;-68
2023/07/06 01:41:39;;;;;;;6.37;2.50;;;;;;;14.08;88.76;101307.66;6128266;28;20235;-68
2023/07/06 01:45:04;;;;;;;6.13;3.10;;;;;;;14.09;88.50;101314.75;6141953;28;20697;-68
2023/07/06 01:48:26;;;;;;;2.97;2.47;;;;;;;14.06;88.58;101310.47;6137336;28;20242;-69
2023/07/06 01:51:56;;;;;;;3.97;2.40;;;;;;;13.99;88.42;101309.38;6149510;28;20262;-68
2023/07/06 01:55:24;;;;;;;2.87;2.03;;;;;;;13.96;89.05;101312.38;6143181;28;20239;-69
2023/07/06 01:58:52;;;;;;;6.00;2.67;;;;;;;13.98;89.22;101317.63;6139142;28;21106;-68
2023/07/06 02:02:16;;;;;;;5.63;2.10;;;;;;;13.98;89.58;101307.66;6126800;28;20234;-68
2023/07/06 02:05:41;;;;;;;5.90;3.00;;;;;;;13.83;89.63;101316.41;6125827;28;20297;-68
2023/07/06 02:09:03;;;;;;;4.97;2.83;;;;;;;13.84;89.90;101323.53;6141863;28;20223;-68
2023/07/06 02:12:24;;;;;;;3.27;2.00;;;;;;;13.85;90.12;101320.66;6145540;28;20250;-68
2023/07/06 02:15:45;;;;;;;2.60;2.40;;;;;;;13.86;90.28;101325.09;6134983;28;20563;-68
2023/07/06 02:19:07;;;;;;;3.00;2.53;;;;;;;13.85;90.38;101319.84;6113119;28;20254;-68
2023/07/06 02:22:29;;;;;;;3.43;2.50;;;;;;;13.75;90.31;101317.13;6090883;28;20239;-68
2023/07/06 02:25:53;;;;;;;4.03;2.40;;;;;;;13.78;90.73;101316.84;6141034;28;20234;-68
2023/07/06 02:29:16;;;;;;;3.73;2.53;;;;;;;13.81;90.77;101318.41;6136482;28;20317;-69
2023/07/06 02:32:39;;;;;;;3.27;2.80;;;;;;;13.85;90.71;101320.66;6133607;28;20230;-68
2023/07/06 02:36:00;;;;;;;3.37;3.10;;;;;;;13.81;90.67;101321.13;6124078;28;20238;-69
2023/07/06 02:39:24;;;;;;;3.53;2.60;;;;;;;13.75;90.66;101319.84;6146721;28;20246;-68
2023/07/06 02:42:45;;;;;;;2.33;2.00;;;;;;;13.70;90.72;101329.41;6152262;28;20235;-67
2023/07/06 02:46:06;;;;;;;3.13;2.27;;;;;;;13.72;90.74;101322.84;6135199;28;20254;-68
2023/07/06 02:49:27;;;;;;;2.50;2.20;;;;;;;13.75;90.97;101319.84;6136820;28;20242;-68
2023/07/06 02:52:48;;;;;;;3.50;2.37;;;;;;;13.77;90.57;101322.44;6130584;28;20246;-68
2023/07/06 02:56:10;;;;;;;3.83;2.63;;;;;;;13.62;90.50;101328.28;6144180;28;20234;-69
2023/07/06 02:59:31;;;;;;;3.63;2.70;;;;;;;13.68;90.92;101331.41;6149845;28;20234;-68
2023/07/06 03:02:52;;;;;;;3.70;3.40;;;;;;;13.63;90.95;101330.00;6127321;28;20246;-68
2023/07/06 03:06:17;;;;;;;3.93;3.53;;;;;;;13.68;91.37;101337.69;6143724;28;20337;-69
2023/07/06 03:09:38;;;;;;;3.53;2.97;;;;;;;13.57;91.35;101341.41;6136863;28;20507;-69
2023/07/06 03:13:01;;;;;;;3.17;2.87;;;;;;;13.69;91.71;101350.22;6123001;28;20226;-68
2023/07/06 03:16:22;;;;;;;3.37;3.07;;;;;;;13.58;91.75;101359.34;6146445;28;20599;-68
2023/07/06 03:19:43;;;;;;;4.77;3.23;;;;;;;13.58;92.22;101356.66;6144233;28;20242;-69
2023/07/06 03:23:04;;;;;;;5.30;3.60;;;;;;;13.64;92.46;101355.25;6117034;28;20800;-68
2023/07/06 03:26:25;;;;;;;2.53;2.33;;;;;;;13.58;92.37;101361.22;6120389;28;20231;-69
2023/07/06 03:29:47;;;;;;;2.57;2.37;;;;;;;13.61;92.51;101356.38;6139673;28;20227;-69
2023/07/06 03:33:09;;;;;;;5.17;4.13;;;;;;;13.72;92.42;101366.22;6129910;28;20231;-69
2023/07/06 03:36:31;;;;;;;3.47;2.80;;;;;;;13.67;92.45;101371.19;6135274;28;20222;-69
2023/07/06 03:39:52;;;;;;;7.13;4.40;;;;;;;13.70;92.30;101379.06;6154674;28;20594;-69
2023/07/06 03:43:15;;;;;;;3.07;2.87;;;;;;;13.77;92.12;101371.19;6143468;28;20234;-69
2023/07/06 03:46:38;;;;;;;5.87;2.60;;;;;;;13.77;92.35;101372.03;6133237;28;20231;-69
2023/07/06 03:49:58;;;;;;;3.33;3.03;;;;;;;13.73;92.38;101375.16;6139268;28;20337;-68
2023/07/06 03:53:20;;;;;;;4.13;3.80;;;;;;;13.86;92.03;101386.56;6158518;28;20294;-69
2023/07/06 03:56:40;;;;;;;4.20;3.53;;;;;;;13.84;92.28;101386.72;6124765;28;20242;-68
2023/07/06 04:00:07;;;;;;;6.90;4.57;;;;;;;13.88;92.34;101390.84;6138706;28;20238;-69
2023/07/06 04:03:34;;;;;;;4.23;3.83;;;;;;;13.88;92.35;101381.88;6133303;28;20303;-68
2023/07/06 04:06:55;;;;;;;4.30;3.90;;;;;;;13.95;92.35;101383.00;6134336;28;20235;-68
2023/07/06 04:10:16;;;;;;;5.07;4.03;;;;;;;13.94;92.52;101387.56;6131758;28;20496;-69
2023/07/06 04:13:36;;;;;;;6.23;4.17;;;;;;;13.94;92.50;101401.13;6141778;28;20242;-69
2023/07/06 04:16:57;;;;;;;4.57;4.17;;;;;;;14.03;92.72;101405.69;6146999;28;20249;-68
2023/07/06 04:20:22;;;;;;;5.53;4.00;;;;;;;14.03;92.59;101397.53;6124017;28;20231;-69
2023/07/06 04:23:43;;;;;;;6.00;4.43;;;;;;;13.99;92.75;101393.41;6141925;28;20235;-68
2023/07/06 04:27:05;;;;;;;4.67;4.13;;;;;;;14.09;92.41;101396.97;6123875;28;20293;-69
2023/07/06 04:30:27;;;;;;;7.57;4.57;;;;;;;14.08;92.72;101400.66;6131645;28;20602;-69
2023/07/06 04:33:48;;;;;;;5.30;3.37;;;;;;;14.07;92.87;101401.69;6136687;28;20242;-68
2023/07/06 04:37:11;;;;;;;6.10;3.13;;;;;;;14.07;92.76;101409.81;6143953;28;20226;-69
2023/07/06 04:40:31;;;;;;;6.07;3.80;;;;;;;14.29;92.61;101412.19;6126556;28;20262;-68
2023/07/06 04:43:53;;;;;;;6.10;4.57;;;;;;;14.20;92.60;101409.50;6134063;28;20253;-69
2023/07/06 04:47:14;;;;;;;15.03;4.67;;;;;;;14.22;92.65;101408.34;6143438;28;20233;-69
2023/07/06 04:50:37;;;;;;;4.13;3.53;;;;;;;14.41;92.46;101411.03;6133602;28;20227;-68
2023/07/06 04:53:59;;;;;;;12.13;5.57;;;;;;;14.21;92.09;101408.47;6143918;28;20239;-68
2023/07/06 04:57:20;;;;;;;5.50;3.80;;;;;;;14.32;91.88;101406.50;6148874;28;20581;-68
2023/07/06 05:00:41;;;;;;;5.33;4.03;;;;;;;14.52;91.81;101411.88;6131769;28;20234;-69
2023/07/06 05:04:02;;;;;;;4.73;3.47;;;;;;;14.43;91.57;101411.72;6147240;28;20231;-68
2023/07/06 05:07:23;;;;;;;4.80;4.20;;;;;;;14.73;91.29;101412.47;6133583;28;20508;-68
2023/07/06 05:10:48;;;;;;;6.50;3.70;;;;;;;14.73;90.32;101407.03;6137995;28;20239;-68
2023/07/06 05:14:09;;;;;;;5.50;4.37;;;;;;;14.68;90.59;101403.94;6138765;28;20462;-68
2023/07/06 05:17:31;;;;;;;4.13;3.70;;;;;;;14.85;90.33;101409.41;6136185;28;20222;-69
2023/07/06 05:20:56;;;;;;;5.53;4.93;;;;;;;14.85;90.07;101414.00;6128101;28;21611;-72
2023/07/06 05:24:18;;;;;;;4.27;3.87;;;;;;;14.94;89.78;101410.38;6137597;28;20237;-69
2023/07/06 05:27:40;;;;;;;6.37;3.27;;;;;;;14.91;89.08;101416.13;6143032;28;20317;-70
2023/07/06 05:31:04;;;;;;;4.00;3.60;;;;;;;15.07;88.96;101414.44;6129591;28;20256;-70
2023/07/06 05:34:24;;;;;;;3.47;3.17;;;;;;;15.06;88.40;101420.03;6131574;28;20235;-70
2023/07/06 05:37:45;;;;;;;3.13;2.93;;;;;;;15.03;88.41;101418.47;6128894;28;20604;-69
2023/07/06 05:41:06;;;;;;;4.77;4.00;;;;;;;15.25;88.37;101433.47;6101999;28;20278;-68
2023/07/06 05:44:28;;;;;;;4.90;3.87;;;;;;;15.40;87.78;101433.81;6136895;28;20321;-69
2023/07/06 05:47:49;;;;;;;7.87;3.23;;;;;;;15.30;87.58;101431.16;6126270;28;20317;-68
2023/07/06 05:51:10;;;;;;;4.57;3.50;;;;;;;15.58;87.54;101427.41;6123096;28;20254;-68
2023/07/06 05:54:32;;;;;;;9.97;3.93;;;;;;;15.36;86.95;101433.28;6125707;28;20262;-69
2023/07/06 05:57:53;;;;;;;3.40;3.13;;;;;;;15.42;86.25;101432.66;6105398;28;20321;-69
2023/07/06 06:01:16;;;;;;;5.70;3.80;;;;;;;15.51;86.57;101439.94;6146207;28;20242;-68
2023/07/06 06:04:38;;;;;;;3.80;3.17;;;;;;;15.66;85.91;101442.97;6141840;28;20223;-68
2023/07/06 06:08:00;;;;;;;4.13;3.53;;;;;;;15.63;85.69;101443.25;6126443;28;20300;-68
2023/07/06 06:11:22;;;;;;;4.83;4.40;;;;;;;15.79;85.67;101447.00;6140846;28;20270;-70
2023/07/06 06:14:43;;;;;;;3.37;3.07;;;;;;;16.16;84.88;101445.94;6135027;28;20998;-70
2023/07/06 06:18:05;;;;;;;4.00;3.63;;;;;;;16.30;84.06;101451.69;6113444;28;20220;-70
2023/07/06 06:21:29;;;;;;;4.83;2.90;;;;;;;15.90;84.10;101457.63;6146125;28;20226;-69
2023/07/06 06:24:50;;;;;;;5.07;3.53;;;;;;;15.95;84.09;101458.03;6145439;28;20235;-69
2023/07/06 06:28:11;;;;;;;3.70;3.40;;;;;;;15.92;84.55;101469.22;6144147;28;20258;-69
2023/07/06 06:31:32;;;;;;;4.83;3.83;;;;;;;15.90;84.30;101471.22;6139476;28;20249;-70
2023/07/06 06:34:54;;;;;;;6.20;4.07;;;;;;;15.66;84.50;101479.16;6136891;28;20251;-71
2023/07/06 06:38:15;;;;;;;4.20;3.60;;;;;;;15.82;84.37;101481.19;6125235;28;20330;-70
2023/07/06 06:41:38;;;;;;;3.97;3.47;;;;;;;16.00;84.46;101487.47;6126920;28;20654;-72
2023/07/06 06:44:59;;;;;;;3.40;2.97;;;;;;;16.15;83.61;101485.03;6132334;28;20609;-73
2023/07/06 06:48:20;;;;;;;4.80;3.47;;;;;;;16.32;83.26;101481.44;6136814;28;20227;-73
2023/07/06 06:51:43;;;;;;;4.47;2.87;;;;;;;16.43;82.01;101482.06;6136829;28;20231;-73
2023/07/06 06:55:05;;;;;;;2.97;2.40;;;;;;;16.61;81.40;101487.47;6149769;28;20532;-71
2023/07/06 06:58:26;;;;;;;3.87;2.83;;;;;;;16.63;80.19;101480.00;6136821;28;20231;-71
2023/07/06 07:01:50;;;;;;;5.33;2.50;;;;;;;16.86;79.26;101485.75;6140244;28;20364;-68
2023/07/06 07:05:15;;;;;;;2.00;1.80;;;;;;;16.52;77.86;101489.28;6136276;28;20541;-71
2023/07/06 07:08:38;;;;;;;3.53;2.77;;;;;;;16.78;77.14;101495.59;6147289;28;20238;-71
2023/07/06 07:11:59;;;;;;;1.63;1.53;;;;;;;17.12;76.22;101502.91;6128994;28;20230;-69
2023/07/06 07:15:20;;;;;;;2.43;2.20;;;;;;;17.21;75.57;101499.22;6128694;28;20243;-69
2023/07/06 07:18:43;;;;;;;8.53;1.90;;;;;;;17.36;74.90;101506.59;6136718;28;20234;-69
2023/07/06 07:22:04;;;;;;;2.23;1.70;;;;;;;17.34;74.42;101502.31;6149450;28;20234;-70
2023/07/06 07:25:27;;;;;;;8.15;2.30;;;;;;;17.48;73.66;101510.72;6135579;28;20730;-69
2023/07/06 07:28:48;;;;;;;4.93;2.05;;;;;;;17.89;73.24;101505.41;6159106;28;20231;-68
2023/07/06 07:32:09;;;;;;;2.37;2.20;;;;;;;17.33;73.12;101508.81;6133178;28;20240;-70
2023/07/06 07:35:31;;;;;;;2.13;1.83;;;;;;;17.25;72.07;101506.88;6141144;28;20247;-70
2023/07/06 07:38:53;;;;;;;3.53;1.73;;;;;;;17.55;71.91;101510.97;6150263;28;20703;-72
2023/07/06 07:42:16;;;;;;;2.63;2.03;;;;;;;17.80;71.22;101515.47;6139096;28;20246;-69
2023/07/06 07:45:37;;;;;;;1.80;1.70;;;;;;;17.86;70.93;101513.91;6138683;28;20250;-69
2023/07/06 07:49:00;;;;;;;4.32;1.63;;;;;;;18.26;70.43;101523.03;6146564;28;20219;-69
2023/07/06 07:52:21;;;;;;;2.90;2.47;;;;;;;17.66;70.59;101531.63;6134009;28;20231;-73
2023/07/06 07:55:42;;;;;;;2.27;2.07;;;;;;;18.05;70.03;101532.72;6141259;28;20708;-72
2023/07/06 07:59:04;;;;;;;2.00;1.80;;;;;;;18.45;68.95;101543.72;6145744;28;20230;-69
2023/07/06 08:02:25;;;;;;;2.90;2.58;;;;;;;18.54;67.36;101520.00;6154913;28;20338;-70
2023/07/06 08:05:46;;;;;;;1.53;1.43;;;;;;;18.33;65.83;101534.13;6122307;28;20237;-69
2023/07/06 08:09:07;;;;;;;5.88;1.85;;;;;;;18.27;66.56;101535.63;6123971;28;20506;-68
2023/07/06 08:12:28;;;;;;;2.60;1.93;;;;;;;18.66;66.18;101543.19;6123974;28;20234;-69
2023/07/06 08:15:50;;;;;;;2.97;1.83;;;;;;;18.91;65.63;101543.00;6127061;28;20245;-69
2023/07/06 08:19:12;;;;;;;1.90;1.45;;;;;;;18.92;63.83;101561.06;6153090;28;20254;-69
2023/07/06 08:22:32;;;;;;;1.55;1.45;;;;;;;18.85;63.59;101561.94;6153798;28;20242;-69
2023/07/06 08:25:53;;;;;;;2.85;1.85;;;;;;;18.89;64.12;101555.97;6149566;28;20671;-69
2023/07/06 08:29:14;;;;;;;1.88;1.73;;;;;;;19.36;63.46;101553.28;6158072;28;20249;-69
2023/07/06 08:32:37;;;;;;;1.92;1.70;;;;;;;18.64;64.60;101567.94;6152594;28;20235;-69
2023/07/06 08:36:00;;;;;;;2.65;1.30;;;;;;;18.75;64.41;101561.28;6150301;28;20322;-68
2023/07/06 08:39:20;;;;;;;2.45;1.35;;;;;;;19.31;63.87;101579.44;6161073;28;20231;-68
2023/07/06 08:42:43;;;;;;;1.75;1.50;;;;;;;19.13;63.25;101572.31;6156824;28;20238;-69
2023/07/06 08:46:11;;;;;;;1.67;1.55;;;;;;;19.05;63.37;101575.06;6130210;28;20238;-68
2023/07/06 08:49:36;;;;;;;1.80;1.70;;;;;;;18.92;63.25;101584.84;6148640;28;20280;-69
2023/07/06 08:52:57;;;;;;;1.60;1.50;;;;;;;19.42;62.81;101576.38;6157788;28;20234;-69
2023/07/06 08:56:23;;;;;;;2.75;1.70;;;;;;;19.84;62.05;101579.59;6151867;28;20504;-69
2023/07/06 08:59:48;;;;;;;1.77;1.58;;;;;;;19.41;60.71;101577.38;6154801;28;20603;-69
2023/07/06 09:03:11;;;;;;;2.35;1.20;;;;;;;19.07;60.49;101577.63;6141614;28;20266;-69
2023/07/06 09:06:37;;;;;;;5.57;1.85;;;;;;;19.64;60.47;101575.59;6141780;28;20227;-69
2023/07/06 09:09:59;;;;;;;3.63;1.52;;;;;;;19.47;60.73;101577.53;6147402;28;20223;-69
2023/07/06 09:13:25;;;;;;;1.38;1.27;;;;;;;20.06;60.38;101580.66;6149061;28;20235;-68
2023/07/06 09:16:48;;;;;;;2.88;1.42;;;;;;;20.37;59.56;101585.13;6149719;28;20239;-69
2023/07/06 09:20:12;;;;;;;2.17;1.38;;;;;;;20.36;58.34;101590.78;6144905;28;20667;-68
2023/07/06 09:23:34;;;;;;;1.83;1.73;;;;;;;19.82;59.71;101590.72;6153680;28;20255;-70
2023/07/06 09:26:58;;;;;;;2.30;1.42;;;;;;;19.94;58.81;101596.66;6150289;28;20517;-68
2023/07/06 09:30:29;;;;;;;5.35;1.67;;;;;;;19.95;59.22;101598.34;6137767;28;20744;-69
2023/07/06 09:33:53;;;;;;;1.75;1.65;;;;;;;19.85;58.38;101603.19;6148831;28;20251;-70
2023/07/06 09:37:15;;;;;;;3.83;1.63;;;;;;;20.03;58.81;101603.78;6150567;28;20226;-69
2023/07/06 09:40:37;;;;;;;2.83;1.48;;;;;;;20.56;57.82;101600.22;6142622;28;20821;-69
2023/07/06 09:44:03;;;;;;;1.95;1.45;;;;;;;20.52;57.18;101616.19;6144881;28;20254;-70
2023/07/06 09:47:24;;;;;;;2.05;1.23;;;;;;;20.32;57.07;101609.44;6155666;28;20494;-69
2023/07/06 09:50:51;;;;;;;2.00;1.02;;;;;;;20.58;56.63;101609.09;6131212;28;20233;-69
2023/07/06 09:54:15;;;;;;;1.92;1.67;;;;;;;20.42;56.54;101617.44;6150096;28;20612;-70
2023/07/06 09:57:40;;;;;;;2.15;1.00;;;;;;;20.07;57.62;101607.84;6116469;28;20242;-69
2023/07/06 10:01:10;;;;;;;1.77;1.40;;;;;;;20.17;57.50;101618.59;6140072;28;20598;-69
2023/07/06 10:04:47;;;;;;;3.40;1.77;;;;;;;19.99;57.82;101616.13;6155537;28;20234;-70
2023/07/06 10:08:12;;;;;;;2.97;1.23;;;;;;;20.07;57.92;101613.34;6120318;28;20350;-69
2023/07/06 10:11:42;;;;;;;3.83;1.55;;;;;;;20.28;57.38;101610.84;6138115;28;20249;-69
2023/07/06 10:15:08;;;;;;;2.58;1.55;;;;;;;19.87;58.04;101620.28;6129032;28;20238;-72
2023/07/06 10:18:33;;;;;;;1.58;1.48;;;;;;;19.64;58.03;101613.88;6143748;28;20616;-69
2023/07/06 10:22:04;;;;;;;1.33;1.23;;;;;;;19.59;57.97;101621.75;6154360;28;20634;-68
2023/07/06 10:25:33;;;;;;;2.85;0.98;;;;;;;19.85;57.42;101623.22;6136401;28;20609;-69
2023/07/06 10:28:59;;;;;;;7.70;2.08;;;;;;;20.07;57.56;101616.06;6153122;28;20219;-69
2023/07/06 10:32:26;;;;;;;3.60;2.15;;;;;;;20.20;57.34;101615.50;6129911;28;20242;-70
2023/07/06 10:35:50;;;;;;;2.70;1.70;;;;;;;20.55;57.02;101625.88;6143749;28;20258;-70
2023/07/06 10:39:14;;;;;;;2.30;1.42;;;;;;;20.56;54.80;101631.22;6140777;28;20258;-70
2023/07/06 10:42:35;;;;;;;3.25;1.52;;;;;;;20.85;54.16;101624.13;6140694;28;20349;-68
2023/07/06 10:45:59;;;;;;;6.13;1.95;;;;;;;20.83;54.15;101628.94;6134576;28;20270;-70
2023/07/06 10:49:22;;;;;;;1.52;1.30;;;;;;;20.86;54.40;101620.34;6147273;28;20238;-70
2023/07/06 10:52:44;;;;;;;2.05;1.35;;;;;;;21.06;54.25;101625.16;6146435;28;20246;-72
2023/07/06 10:56:15;;;;;;;1.88;1.30;;;;;;;21.14;53.90;101629.69;6146431;28;20806;-70
2023/07/06 10:59:38;;;;;;;2.55;1.33;;;;;;;21.59;53.46;101626.78;6150240;28;20238;-69
2023/07/06 11:03:01;;;;;;;1.73;1.20;;;;;;;21.68;52.74;101617.44;6139000;28;20754;-69
2023/07/06 11:06:52;;;;;;;1.95;1.55;;;;;;;21.28;53.53;101626.13;6151020;28;20235;-71
2023/07/06 11:10:32;;;;;;;3.38;1.95;;;;;;;21.10;54.23;101625.63;6152704;28;20523;-70
2023/07/06 11:13:53;;;;;;;1.92;1.83;;;;;;;21.95;53.07;101622.28;6148836;28;20497;-70
2023/07/06 11:17:23;;;;;;;1.75;1.65;;;;;;;21.89;53.32;101620.28;6152037;28;20642;-72
2023/07/06 11:20:47;;;;;;;2.92;1.23;;;;;;;22.49;52.37;101628.19;6139445;28;20506;-70
2023/07/06 11:24:16;;;;;;;1.58;1.30;;;;;;;23.19;51.92;101619.97;6129287;28;20585;-68
2023/07/06 11:27:43;;;;;;;3.33;1.88;;;;;;;22.08;51.69;101616.94;6137116;28;20257;-69
2023/07/06 11:31:15;;;;;;;2.95;1.23;;;;;;;22.06;53.43;101634.66;6144424;28;20230;-69
2023/07/06 11:34:46;;;;;;;3.70;1.35;;;;;;;21.74;52.20;101630.41;6145998;28;20235;-70
2023/07/06 11:38:20;;;;;;;0.80;0.80;;;;;;;21.62;52.81;101631.06;6149869;28;20234;-68
2023/07/06 11:41:53;;;;;;;1.20;1.10;;;;;;;21.48;53.71;101628.16;6147743;28;20231;-65
2023/07/06 11:45:27;;;;;;;1.10;1.00;;;;;;;21.77;54.50;101631.91;6141779;28;20227;-65
2023/07/06 11:48:57;;;;;;;2.30;1.05;;;;;;;21.30;54.16;101646.84;6139508;28;20234;-66
2023/07/06 11:52:22;;;;;;;1.10;0.85;;;;;;;21.44;55.96;101651.50;6138173;28;20245;-67
2023/07/06 11:55:54;;;;;;;1.40;1.20;;;;;;;20.97;55.75;101641.81;6150053;28;20687;-65
2023/07/06 11:59:36;;;;;;;1.30;1.20;;;;;;;20.75;55.11;101653.66;6134920;28;20262;-67
2023/07/06 12:02:59;;;;;;;2.75;1.15;;;;;;;20.88;55.07;101652.00;6145305;28;20605;-67
2023/07/06 12:06:22;;;;;;;7.55;1.65;;;;;;;20.62;54.52;101652.41;6147957;28;20360;-64
2023/07/06 12:09:44;;;;;;;2.10;1.35;;;;;;;20.25;55.48;101656.91;6145148;28;20570;-66
2023/07/06 12:13:08;;;;;;;3.17;1.90;;;;;;;20.24;56.55;101657.94;6128051;28;20609;-66
2023/07/06 12:16:38;;;;;;;2.90;1.30;;;;;;;20.83;55.98;101664.56;6145226;28;20651;-65
2023/07/06 12:20:00;;;;;;;5.10;1.75;;;;;;;20.89;55.58;101674.78;6141244;28;20313;-67
2023/07/06 12:23:20;;;;;;;4.50;2.53;;;;;;;21.19;56.02;101661.03;6141129;28;20341;-66
2023/07/06 12:26:43;;;;;;;2.15;1.88;;;;;;;20.97;56.23;101669.25;6142537;28;20262;-66
2023/07/06 12:30:11;;;;;;;6.47;2.05;;;;;;;21.48;55.97;101671.19;6142515;28;20666;-63
2023/07/06 12:33:35;;;;;;;1.77;1.38;;;;;;;20.94;56.06;101689.69;6149008;28;20262;-65
2023/07/06 12:37:00;;;;;;;1.55;1.30;;;;;;;21.30;55.77;101671.53;6145557;28;20550;-64
2023/07/06 12:40:25;;;;;;;1.80;1.70;;;;;;;21.69;55.31;101670.44;6139815;28;20238;-64
2023/07/06 12:43:49;;;;;;;3.42;1.70;;;;;;;20.87;56.24;101676.88;6152455;28;23090;-65
2023/07/06 12:47:22;;;;;;;2.17;1.40;;;;;;;21.73;55.98;101658.91;6137194;28;20504;-65
2023/07/06 12:50:47;;;;;;;2.17;1.60;;;;;;;21.23;55.34;101669.75;6143270;28;20219;-64
2023/07/06 12:54:10;;;;;;;4.63;1.38;;;;;;;22.16;54.26;101658.03;6150668;28;20250;-64
2023/07/06 12:57:38;;;;;;;1.85;1.70;;;;;;;22.01;53.74;101670.94;6146115;28;20234;-65
2023/07/06 13:01:06;;;;;;;1.92;1.70;;;;;;;21.99;53.89;101659.28;6135558;28;20227;-63
2023/07/06 13:04:43;;;;;;;1.17;1.08;;;;;;;21.70;54.37;101664.75;6148395;28;20266;-65
2023/07/06 13:08:08;;;;;;;1.88;1.40;;;;;;;21.47;55.24;101656.63;6143676;28;20235;-65
2023/07/06 13:11:29;;;;;;;3.55;1.60;;;;;;;21.52;56.57;101656.06;6146104;28;20247;-65
2023/07/06 13:14:52;;;;;;;3.97;1.80;;;;;;;21.37;56.94;101674.38;6151614;28;20264;-64
2023/07/06 13:18:19;;;;;;;2.25;1.20;;;;;;;21.05;57.50;101675.53;6142015;28;20231;-64
2023/07/06 13:21:41;;;;;;;2.78;1.67;;;;;;;20.96;58.22;101668.41;6149592;28;20230;-64
2023/07/06 13:25:04;;;;;;;2.72;1.55;;;;;;;23.38;54.75;101668.00;6153303;28;20239;-64
2023/07/06 13:28:25;;;;;;;1.48;1.38;;;;;;;25.51;48.71;101655.38;6144868;28;20238;-65
2023/07/06 13:31:48;;;;;;;2.10;1.42;;;;;;;22.10;52.62;101664.31;6145371;28;20238;-65
2023/07/06 13:35:11;;;;;;;5.60;1.65;;;;;;;21.61;55.21;101654.91;6131431;28;23925;-65
2023/07/06 13:38:32;;;;;;;2.05;1.65;;;;;;;21.02;56.81;101653.09;6118556;28;20322;-65
2023/07/06 13:41:54;;;;;;;2.60;1.55;;;;;;;22.90;54.81;101664.16;6153003;28;20231;-65
2023/07/06 13:45:18;;;;;;;3.33;1.73;;;;;;;22.47;54.25;101665.13;6145174;28;20226;-65
2023/07/06 13:48:40;;;;;;;5.00;1.70;;;;;;;22.56;53.28;101666.72;6135400;28;20239;-67
2023/07/06 13:52:01;;;;;;;1.38;1.20;;;;;;;23.46;52.24;101657.69;6118914;28;20326;-66
2023/07/06 13:55:27;;;;;;;2.65;2.05;;;;;;;22.79;53.00;101668.28;6144619;28;20239;-66
2023/07/06 13:58:49;;;;;;;2.80;1.40;;;;;;;22.28;54.16;101661.13;6144927;28;20242;-67
2023/07/06 14:02:12;;;;;;;2.50;2.30;;;;;;;21.41;56.66;101678.47;6147414;28;20227;-65
2023/07/06 14:05:32;;;;;;;2.00;1.75;;;;;;;21.27;57.10;101682.91;6146743;28;20604;-67
2023/07/06 14:08:55;;;;;;;1.55;1.40;;;;;;;21.19;58.63;101688.47;6136887;28;20238;-67
2023/07/06 14:12:16;;;;;;;2.35;1.65;;;;;;;20.49;62.32;101706.94;6134420;28;20239;-68
2023/07/06 14:15:45;;;;;;;3.03;1.75;;;;;;;19.77;67.17;101735.47;6138458;28;20247;-70
2023/07/06 14:19:06;;;;;;;2.28;2.05;;;;;;;19.32;70.59;101739.72;6136025;28;20642;-69
2023/07/06 14:22:27;;;;;;;1.90;1.73;;;;;;;18.75;73.63;101753.38;6124772;28;20226;-66
2023/07/06 14:25:50;;;;;;;3.03;2.63;;;;;;;18.25;76.98;101766.16;6131889;28;20258;-68
2023/07/06 14:29:11;;;;;;;2.10;1.95;;;;;;;18.31;79.59;101774.53;6146204;28;20218;-74
2023/07/06 14:32:33;;;;;;;2.85;2.28;;;;;;;18.28;80.36;101768.53;6144372;28;20330;-70
2023/07/06 14:35:54;;;;;;;1.73;1.63;;;;;;;18.66;80.63;101770.78;6140120;28;20246;-71
2023/07/06 14:39:17;;;;;;;5.15;2.45;;;;;;;18.62;80.93;101763.06;6157602;28;20229;-71
2023/07/06 14:42:39;;;;;;;4.95;2.80;;;;;;;18.67;80.31;101764.28;6138926;28;20809;-71
2023/07/06 14:46:01;;;;;;;2.72;2.33;;;;;;;18.53;80.35;101773.13;6148731;28;20246;-69
2023/07/06 14:49:23;;;;;;;2.47;2.10;;;;;;;18.60;79.95;101763.25;6135593;28;20903;-70
2023/07/06 14:52:45;;;;;;;2.05;1.90;;;;;;;18.83;79.24;101755.28;6149949;28;20233;-72
2023/07/06 14:56:06;;;;;;;3.15;2.70;;;;;;;19.03;78.39;101765.72;6147775;28;20222;-70
2023/07/06 14:59:27;;;;;;;2.25;2.08;;;;;;;19.23;77.94;101762.66;6154613;28;20242;-71
2023/07/06 15:02:55;;;;;;;5.90;2.22;;;;;;;19.62;77.15;101760.94;6144925;28;20528;-70
2023/07/06 15:06:17;;;;;;;2.15;2.03;;;;;;;20.09;75.99;101767.34;6147880;28;20241;-71
2023/07/06 15:09:45;;;;;;;3.13;2.53;;;;;;;20.27;74.26;101761.66;6143779;28;20231;-73
2023/07/06 15:13:06;;;;;;;2.88;2.67;;;;;;;20.10;73.38;101762.72;6147912;28;20488;-74
2023/07/06 15:16:26;;;;;;;3.70;2.40;;;;;;;21.28;72.55;101758.66;6156061;28;20234;-70
2023/07/06 15:19:48;;;;;;;6.05;4.97;;;;;;;21.85;70.38;101752.66;6155157;28;20242;-71
2023/07/06 15:23:10;;;;;;;7.10;5.15;;;;;;;22.69;67.31;101749.41;6145597;28;20822;-72
2023/07/06 15:26:31;;;;;;;3.42;3.13;;;;;;;23.20;65.11;101739.16;6155154;28;20227;-73
2023/07/06 15:29:52;;;;;;;3.90;2.85;;;;;;;23.64;63.70;101735.13;6148570;28;20222;-71
2023/07/06 15:33:13;;;;;;;3.83;2.42;;;;;;;23.39;62.34;101733.84;6155725;28;20250;-71
2023/07/06 15:36:34;;;;;;;2.13;1.90;;;;;;;23.97;59.96;101729.81;6153839;28;20227;-72
2023/07/06 15:39:57;;;;;;;2.20;1.50;;;;;;;23.69;57.57;101729.00;6155312;28;20242;-71
2023/07/06 15:43:19;;;;;;;5.72;2.10;;;;;;;23.51;58.26;101728.66;6157341;28;20250;-72
2023/07/06 15:46:40;;;;;;;1.70;1.60;;;;;;;23.68;58.74;101730.03;6149991;28;20568;-73